Главная страница
METAR-TAF:

METAR-TAF

Аэропорты :

Сен-Дени, Реюньон

широта: 20-53S, долгота: 055-31E, высота над уровнем моря: 21 м

Текущие метеонаблюдения

Эта сводка был подготовлена 27 минут назад, в 12:30 UTC
Ветер 15 Узел от восточно-юго-восточный
Температура 31°C
Влажность 66%
Давление 1013 hPa
Видимость 10 км и более
Нет облачности ниже 1500 м, и нет кучево-дождевой облачности

METAR: FMEE 031230Z AUTO 12015KT CAVOK 31/24 Q1013 NOSIG

Время: 16:57 (12:57 UTC)

Прогноз

Эта сводка был подготовлена 1 час и 57 минут назад, в 11:00 UTC
Прогноз действительный с 03-го 12 UTC до 04-го 18 UTC
Ветер 12 Узел от юго-восточный
Видимость 10 км и более
Отдельные облака на высоте 2300 фута
Рассеянная облачность на высоте 8000 фута
временами
С 03-го 16 UTC до 04-го 08 UTC
Видимость: 3000 м
Отдельные облака на высоте 1500 фута
Рассеянная облачность на высоте 2200 фута, мощно-кучевые.
ливневые дожди,

TAF: FMEE 031100Z 0312/0418 13012KT 9999 SCT023 BKN080 TEMPO 0316/0408 3000 SHRA SCT015 BKN022TCU

Метеонаблюдения и прогнозы для более 4000 аэропортов (сводки METAR и TAF).

Имеющиеся станции представлены на карте желтыми и красными точками.

Чтобы увидеть название станции, наведите на нее мышь.

Затем щелкните, чтобы увидеть метеонаблюдения и метеопрогнозы.

Управление картой: чтобы увеличить масштаб, щелкните зеленые кнопки с черным крестиком; чтобы уменьшить масштаб, щелкните зеленую кнопку с тире; для просмотра соседних карт щелкайте зеленые стрелки.


METAR-TAF: